Time;durP1;ratioP1;P1;durP2;ratioP2;P2;SDS_P1;SDS_P2;PMS_P1;PMS_P2;Temp;Humidity;BMP_temperature;BMP_pressure;BME280_temperature;BME280_humidity;BME280_pressure;Samples;Min_cycle;Max_cycle;Signal;HPM_P1;HPM_P2
2022/04/01 00:00:06;;;;;;;10.33;8.40;;;6.60;39.40;;;;;;5032739;28;20899;-72
2022/04/01 00:02:32;;;;;;;9.37;6.97;;;6.60;39.50;;;;;;5032845;28;20421;-72
2022/04/01 00:04:58;;;;;;;10.33;9.33;;;6.40;40.20;;;;;;5032552;28;20419;-72
2022/04/01 00:07:24;;;;;;;11.10;7.40;;;6.50;40.70;;;;;;5032906;28;20422;-72
2022/04/01 00:09:49;;;;;;;11.03;9.00;;;6.30;41.50;;;;;;5032335;28;20925;-72
2022/04/01 00:12:15;;;;;;;15.53;9.47;;;6.30;41.30;;;;;;5031346;28;20182;-72
2022/04/01 00:14:41;;;;;;;11.40;10.17;;;6.30;41.10;;;;;;5036227;28;20205;-71
2022/04/01 00:17:06;;;;;;;11.13;9.47;;;6.20;40.40;;;;;;5034936;28;20423;-72
2022/04/01 00:19:32;;;;;;;10.20;7.97;;;6.20;41.10;;;;;;5035859;28;20204;-71
2022/04/01 00:21:58;;;;;;;9.17;8.37;;;6.30;40.70;;;;;;5035637;28;20212;-72
2022/04/01 00:24:24;;;;;;;11.93;9.40;;;6.30;41.00;;;;;;5035868;28;20183;-71
2022/04/01 00:26:49;;;;;;;14.37;9.10;;;6.20;41.20;;;;;;5034169;28;20232;-72
2022/04/01 00:29:15;;;;;;;13.33;9.30;;;6.00;41.20;;;;;;5035919;28;20420;-71
2022/04/01 00:31:45;;;;;;;15.23;10.23;;;5.90;42.80;;;;;;5034575;28;20655;-70
2022/04/01 00:34:17;;;;;;;13.80;9.40;;;5.70;42.80;;;;;;5035618;28;20201;-72
2022/04/01 00:36:49;;;;;;;13.00;9.18;;;5.70;42.80;;;;;;5036563;28;20220;-71
2022/04/01 00:39:16;;;;;;;12.27;8.93;;;5.90;43.70;;;;;;5038803;28;20599;-71
2022/04/01 00:41:44;;;;;;;10.60;9.20;;;5.90;43.10;;;;;;5037552;28;20199;-71
2022/04/01 00:44:30;;;;;;;11.27;8.90;;;5.90;41.90;;;;;;5038169;28;20412;-72
2022/04/01 00:47:01;;;;;;;14.43;9.45;;;5.60;43.40;;;;;;5038175;28;20183;-71
2022/04/01 00:49:28;;;;;;;12.30;9.05;;;5.70;43.80;;;;;;5037097;28;20731;-72
2022/04/01 00:51:56;;;;;;;13.07;9.73;;;5.60;44.30;;;;;;5035861;28;20195;-70
2022/04/01 00:54:22;;;;;;;15.27;10.32;;;5.30;43.40;;;;;;5035883;28;20201;-70
2022/04/01 00:56:48;;;;;;;13.80;8.90;;;5.20;46.40;;;;;;5035693;28;20532;-71
2022/04/01 00:59:14;;;;;;;13.97;9.93;;;5.20;48.30;;;;;;5035637;28;20230;-71
2022/04/01 01:01:43;;;;;;;11.40;10.10;;;5.10;48.20;;;;;;5035866;28;20445;-71
2022/04/01 01:04:13;;;;;;;12.48;9.10;;;5.10;48.20;;;;;;5034353;28;20180;-70
2022/04/01 01:06:45;;;;;;;10.30;7.28;;;4.90;48.10;;;;;;5035682;28;20523;-71
2022/04/01 01:09:12;;;;;;;10.45;7.47;;;4.90;48.70;;;;;;5035000;28;20649;-71
2022/04/01 01:11:38;;;;;;;15.65;8.25;;;4.90;49.00;;;;;;5035753;28;20564;-71
2022/04/01 01:14:05;;;;;;;12.30;7.70;;;5.00;48.20;;;;;;5035760;28;20203;-71
2022/04/01 01:16:31;;;;;;;13.15;8.88;;;5.10;48.20;;;;;;5034625;28;20419;-70
2022/04/01 01:19:00;;;;;;;14.45;9.30;;;4.90;45.60;;;;;;5035420;28;20175;-71
2022/04/01 01:21:26;;;;;;;11.90;9.55;;;4.80;48.00;;;;;;5034666;28;20265;-71
2022/04/01 01:23:55;;;;;;;10.23;8.02;;;4.70;47.90;;;;;;5034363;28;20180;-71
2022/04/01 01:26:22;;;;;;;14.88;9.52;;;4.60;48.20;;;;;;5034685;28;20190;-71
2022/04/01 01:28:48;;;;;;;9.38;8.05;;;4.60;50.00;;;;;;5033756;28;20186;-71
2022/04/01 01:31:14;;;;;;;14.05;10.25;;;4.70;50.90;;;;;;5035108;28;20195;-72
2022/04/01 01:33:43;;;;;;;12.73;8.87;;;4.90;51.00;;;;;;5034278;28;20213;-71
2022/04/01 01:36:09;;;;;;;9.57;7.38;;;5.00;48.20;;;;;;5034005;28;20187;-72
2022/04/01 01:38:36;;;;;;;10.75;6.93;;;4.90;48.10;;;;;;5035076;28;20176;-71
2022/04/01 01:41:02;;;;;;;13.75;11.32;;;4.90;48.10;;;;;;5035113;28;20269;-71
2022/04/01 01:43:29;;;;;;;14.03;8.50;;;4.90;47.70;;;;;;5035035;28;20176;-71
2022/04/01 01:45:55;;;;;;;13.02;8.70;;;4.80;47.10;;;;;;5035199;28;20186;-71
2022/04/01 01:48:22;;;;;;;13.00;8.63;;;4.80;48.00;;;;;;5035102;28;20183;-71
2022/04/01 01:56:17;;;;;;;9.30;7.32;;;5.10;48.40;;;;;;5034432;28;20186;-71
2022/04/01 01:58:43;;;;;;;11.52;8.25;;;5.00;48.20;;;;;;5033928;28;20171;-71
2022/04/01 02:01:09;;;;;;;13.73;10.70;;;5.10;48.20;;;;;;5034120;28;20378;-71
2022/04/01 02:03:35;;;;;;;13.43;9.17;;;5.00;47.60;;;;;;5033947;28;20202;-71
2022/04/01 02:06:03;;;;;;;9.83;7.23;;;5.00;48.20;;;;;;5033936;28;20944;-71
2022/04/01 02:08:29;;;;;;;10.48;7.97;;;4.90;48.10;;;;;;5036677;28;20588;-71
2022/04/01 02:10:55;;;;;;;10.85;7.90;;;5.10;47.80;;;;;;5033091;28;20207;-70
2022/04/01 02:13:20;;;;;;;9.23;7.43;;;5.20;47.90;;;;;;5033631;28;20204;-70
2022/04/01 02:15:46;;;;;;;8.70;7.37;;;4.90;47.90;;;;;;5033590;28;20415;-70
2022/04/01 02:18:11;;;;;;;12.07;7.97;;;4.90;49.70;;;;;;5033318;28;20581;-71
2022/04/01 02:20:37;;;;;;;9.97;8.57;;;4.90;48.60;;;;;;5033530;28;20231;-71
2022/04/01 02:23:04;;;;;;;9.30;7.27;;;5.00;49.60;;;;;;5033734;28;20176;-71
2022/04/01 02:25:31;;;;;;;11.15;8.90;;;5.20;48.30;;;;;;5033360;28;20175;-70
2022/04/01 02:27:57;;;;;;;10.98;9.75;;;5.20;46.70;;;;;;5033084;28;20171;-70
2022/04/01 02:30:23;;;;;;;10.07;7.43;;;5.10;45.90;;;;;;5033626;28;20195;-71
2022/04/01 02:32:49;;;;;;;10.47;8.33;;;5.10;46.30;;;;;;5034512;28;20703;-70
2022/04/01 02:35:15;;;;;;;14.60;9.07;;;5.10;45.10;;;;;;5032795;28;20287;-70
2022/04/01 02:37:41;;;;;;;12.52;8.75;;;4.80;48.00;;;;;;5033135;28;20554;-70
2022/04/01 02:40:09;;;;;;;11.37;7.47;;;4.90;47.00;;;;;;5033094;28;20278;-70
2022/04/01 02:42:34;;;;;;;14.50;7.80;;;4.90;48.10;;;;;;5034078;28;20461;-71
2022/04/01 02:45:00;;;;;;;7.13;6.10;;;4.50;48.90;;;;;;5034272;28;20171;-70
2022/04/01 02:47:26;;;;;;;12.57;6.53;;;4.70;50.00;;;;;;5033839;28;20425;-70
2022/04/01 02:49:52;;;;;;;10.47;7.80;;;4.90;48.90;;;;;;5031824;28;20254;-71
2022/04/01 02:52:17;;;;;;;10.88;8.60;;;4.80;48.00;;;;;;5033277;28;20175;-70
2022/04/01 02:54:43;;;;;;;13.70;7.67;;;4.80;48.80;;;;;;5033479;28;20205;-71
2022/04/01 02:57:09;;;;;;;10.97;7.80;;;4.70;49.60;;;;;;5032778;28;20649;-71
2022/04/01 02:59:36;;;;;;;16.23;7.83;;;4.80;50.70;;;;;;5032699;28;20206;-71
2022/04/01 03:02:02;;;;;;;7.68;6.93;;;4.80;49.00;;;;;;5032630;28;20171;-70
2022/04/01 03:04:28;;;;;;;8.80;7.33;;;4.50;50.20;;;;;;5032991;28;20177;-70
2022/04/01 03:06:53;;;;;;;9.23;7.00;;;4.40;52.00;;;;;;5032522;28;20808;-70
2022/04/01 03:09:19;;;;;;;12.23;9.87;;;4.50;53.00;;;;;;5032787;28;20210;-72
2022/04/01 03:11:45;;;;;;;12.93;9.47;;;4.50;51.40;;;;;;5032495;28;20195;-73
2022/04/01 03:14:11;;;;;;;15.90;10.10;;;4.60;53.40;;;;;;5031346;28;20592;-70
2022/04/01 03:16:38;;;;;;;15.15;11.35;;;4.70;53.50;;;;;;5032198;28;20164;-72
2022/04/01 03:19:08;;;;;;;20.02;14.20;;;4.70;51.80;;;;;;5032347;28;20241;-70
2022/04/01 03:21:35;;;;;;;16.13;12.82;;;4.60;52.00;;;;;;5032171;28;20218;-70
2022/04/01 03:24:02;;;;;;;24.60;17.60;;;4.60;53.10;;;;;;5032642;28;20713;-72
2022/04/01 03:26:28;;;;;;;29.65;21.33;;;4.70;52.00;;;;;;5031985;28;20181;-69
2022/04/01 03:28:55;;;;;;;23.92;17.33;;;4.50;51.60;;;;;;5032282;28;20184;-69
2022/04/01 03:31:21;;;;;;;25.10;15.18;;;4.70;52.50;;;;;;5031989;28;20257;-69
2022/04/01 03:33:46;;;;;;;26.60;14.57;;;4.90;51.80;;;;;;5031982;28;20215;-69
2022/04/01 03:36:13;;;;;;;21.20;15.27;;;4.70;50.50;;;;;;5030736;28;20414;-69
2022/04/01 03:38:39;;;;;;;23.80;16.27;;;4.70;50.40;;;;;;5031869;28;20528;-69
2022/04/01 03:41:07;;;;;;;26.33;17.33;;;4.80;50.20;;;;;;5031852;28;20187;-71
2022/04/01 03:43:36;;;;;;;27.05;17.90;;;4.40;52.50;;;;;;5032802;28;20686;-71
2022/04/01 03:46:11;;;;;;;27.17;19.50;;;4.40;53.60;;;;;;5034611;28;20183;-70
2022/04/01 03:48:42;;;;;;;20.92;15.27;;;4.60;53.40;;;;;;5032309;28;20264;-70
2022/04/01 03:51:08;;;;;;;25.88;19.92;;;4.70;51.70;;;;;;5031079;28;20207;-71
2022/04/01 03:53:34;;;;;;;28.52;21.27;;;4.70;51.50;;;;;;5034241;28;20209;-68
2022/04/01 03:56:01;;;;;;;30.20;20.93;;;4.40;52.00;;;;;;5031997;28;20171;-69
2022/04/01 03:58:32;;;;;;;38.60;19.30;;;4.40;53.20;;;;;;5032490;28;20171;-70
2022/04/01 04:01:03;;;;;;;32.25;20.27;;;4.50;53.20;;;;;;5032116;28;20198;-71
2022/04/01 04:03:31;;;;;;;35.08;19.75;;;4.60;52.70;;;;;;5031923;28;20176;-68
2022/04/01 04:05:58;;;;;;;27.48;17.83;;;4.40;53.00;;;;;;5031699;28;20229;-68
2022/04/01 04:08:24;;;;;;;34.40;21.05;;;4.40;52.60;;;;;;5030234;28;20578;-68
2022/04/01 04:10:52;;;;;;;27.10;17.85;;;4.50;53.30;;;;;;5031692;28;20788;-68
2022/04/01 04:13:20;;;;;;;23.38;15.75;;;4.60;51.90;;;;;;5031938;28;20183;-68
2022/04/01 04:16:09;;;;;;;28.42;19.75;;;4.60;52.10;;;;;;5032214;28;20206;-68
2022/04/01 04:18:42;;;;;;;30.38;19.10;;;4.60;51.10;;;;;;5031784;28;20175;-69
2022/04/01 04:21:10;;;;;;;25.13;18.70;;;4.70;51.60;;;;;;5032123;28;20207;-69
2022/04/01 04:23:45;;;;;;;27.23;15.93;;;4.80;50.00;;;;;;5030518;28;20186;-70
2022/04/01 04:26:23;;;;;;;24.20;16.52;;;4.80;51.20;;;;;;5031346;28;20293;-69
2022/04/01 04:28:54;;;;;;;31.38;19.73;;;4.80;52.00;;;;;;5031363;28;20202;-68
2022/04/01 04:31:26;;;;;;;26.30;17.27;;;4.80;50.50;;;;;;5032399;28;20609;-71
2022/04/01 04:33:55;;;;;;;23.02;16.20;;;4.70;50.20;;;;;;5032362;28;20192;-68
2022/04/01 04:36:30;;;;;;;22.25;16.50;;;4.50;51.60;;;;;;5032096;28;20176;-70
2022/04/01 04:38:58;;;;;;;25.13;16.65;;;4.60;50.90;;;;;;5031118;28;20186;-68
2022/04/01 04:41:24;;;;;;;27.08;19.55;;;4.50;51.70;;;;;;5031009;28;20257;-69
2022/04/01 04:43:50;;;;;;;23.10;17.48;;;4.60;52.40;;;;;;5032273;28;20175;-69
2022/04/01 04:46:17;;;;;;;22.10;14.50;;;4.60;52.00;;;;;;5031995;28;20183;-68
2022/04/01 04:48:45;;;;;;;24.17;15.35;;;4.80;51.10;;;;;;5031987;28;20442;-68
2022/04/01 04:51:11;;;;;;;19.40;12.00;;;4.70;50.20;;;;;;5032092;28;20285;-69
2022/04/01 04:53:38;;;;;;;20.80;12.67;;;4.80;50.20;;;;;;5032103;28;20253;-69
2022/04/01 04:56:05;;;;;;;12.52;9.45;;;4.90;50.00;;;;;;5032345;28;20233;-69
2022/04/01 04:58:39;;;;;;;18.60;12.43;;;5.00;48.20;;;;;;5030527;28;20179;-69
2022/04/01 05:01:13;;;;;;;15.57;12.27;;;5.10;48.10;;;;;;5034987;28;20192;-69
2022/04/01 05:03:46;;;;;;;13.93;12.32;;;5.20;47.20;;;;;;5035526;28;20517;-69
2022/04/01 05:06:17;;;;;;;11.68;9.55;;;5.20;46.60;;;;;;5035517;28;20179;-69
2022/04/01 05:09:21;;;;;;;18.67;9.77;;;5.20;44.50;;;;;;5033979;28;20179;-69
2022/04/01 05:11:56;;;;;;;12.20;9.32;;;5.20;44.50;;;;;;5032298;28;20755;-69
2022/04/01 05:14:46;;;;;;;11.15;8.00;;;5.30;44.20;;;;;;5035073;28;20203;-70
2022/04/01 05:17:21;;;;;;;9.55;8.52;;;4.90;41.60;;;;;;5033436;28;20329;-71
2022/04/01 05:19:57;;;;;;;8.82;6.85;;;4.90;43.80;;;;;;5033459;28;20202;-69
2022/04/01 05:22:48;;;;;;;8.73;7.72;;;5.00;43.90;;;;;;5037593;28;20655;-69
2022/04/01 05:25:22;;;;;;;8.35;6.47;;;5.10;44.30;;;;;;5037399;28;20192;-69
2022/04/01 05:27:50;;;;;;;10.85;7.10;;;5.20;42.40;;;;;;5038033;28;20179;-68
2022/04/01 05:30:18;;;;;;;9.63;7.93;;;4.80;43.00;;;;;;5036333;28;20266;-72
2022/04/01 05:33:00;;;;;;;9.00;6.85;;;4.60;42.90;;;;;;5034641;28;20496;-71
2022/04/01 05:35:31;;;;;;;8.50;7.20;;;4.70;44.50;;;;;;5034909;28;20207;-70
2022/04/01 05:37:59;;;;;;;6.88;6.18;;;4.80;44.40;;;;;;5035207;28;20637;-70
2022/04/01 05:40:26;;;;;;;7.43;6.68;;;4.70;44.60;;;;;;5035807;28;20207;-72
2022/04/01 05:42:55;;;;;;;8.75;6.50;;;4.70;43.80;;;;;;5034210;28;20258;-70
2022/04/01 05:45:22;;;;;;;9.15;6.15;;;4.80;43.00;;;;;;5034189;28;20221;-68
2022/04/01 05:47:47;;;;;;;9.45;7.82;;;4.70;43.70;;;;;;5032640;28;20183;-68
2022/04/01 05:50:18;;;;;;;7.93;6.73;;;4.60;42.90;;;;;;5034183;28;20282;-69
2022/04/01 05:52:50;;;;;;;7.20;6.47;;;4.70;44.00;;;;;;5032962;28;20187;-68
2022/04/01 05:55:19;;;;;;;7.70;6.18;;;4.80;43.70;;;;;;4998353;28;20690;-69
2022/04/01 05:57:45;;;;;;;8.65;6.57;;;4.90;42.20;;;;;;4994014;28;20185;-69
2022/04/01 06:00:14;;;;;;;7.97;6.63;;;5.00;43.20;;;;;;4994687;28;20698;-68
2022/04/01 06:03:26;;;;;;;7.95;5.63;;;4.90;42.10;;;;;;4994565;28;20652;-69
2022/04/01 06:06:31;;;;;;;9.25;6.53;;;5.00;41.50;;;;;;4994377;28;20225;-68
2022/04/01 06:09:20;;;;;;;7.25;6.53;;;5.10;40.10;;;;;;4994064;28;20177;-69
2022/04/01 06:12:20;;;;;;;7.63;6.93;;;4.70;38.20;;;;;;4994035;28;20690;-69
2022/04/01 06:14:53;;;;;;;8.43;7.55;;;4.60;39.70;;;;;;4994226;28;20209;-68
2022/04/01 06:17:42;;;;;;;9.30;8.40;;;4.40;39.40;;;;;;5009047;28;20264;-71
2022/04/01 06:20:13;;;;;;;7.10;6.40;;;4.00;41.50;;;;;;4993991;28;20291;-69
2022/04/01 06:23:04;;;;;;;16.15;8.80;;;3.90;44.30;;;;;;4994147;28;20173;-69
2022/04/01 06:25:34;;;;;;;10.40;8.10;;;3.70;46.40;;;;;;4992869;28;20184;-69
2022/04/01 06:28:14;;;;;;;10.27;8.95;;;3.80;45.70;;;;;;4994045;28;20176;-69
2022/04/01 06:30:42;;;;;;;13.02;8.45;;;4.00;44.60;;;;;;4994025;28;20196;-68
2022/04/01 06:33:32;;;;;;;9.63;7.07;;;3.70;46.30;;;;;;4994060;28;20181;-69
2022/04/01 06:36:03;;;;;;;11.77;8.52;;;3.60;46.20;;;;;;4998862;28;20181;-68
2022/04/01 06:38:45;;;;;;;8.50;7.50;;;3.50;46.90;;;;;;5001573;28;20247;-69
2022/04/01 06:41:18;;;;;;;11.55;7.40;;;3.40;47.70;;;;;;4997018;28;20207;-69
2022/04/01 06:43:43;;;;;;;9.32;7.95;;;3.40;48.50;;;;;;5008826;28;20223;-69
2022/04/01 06:46:10;;;;;;;13.17;8.97;;;3.40;46.90;;;;;;5008336;28;20215;-69
2022/04/01 06:48:36;;;;;;;14.45;8.40;;;3.60;46.20;;;;;;5008346;28;20188;-69
2022/04/01 06:51:01;;;;;;;8.37;7.33;;;3.40;46.90;;;;;;5007411;28;20200;-69
2022/04/01 06:53:27;;;;;;;8.00;6.87;;;3.50;46.90;;;;;;5009118;28;20549;-69
2022/04/01 06:55:53;;;;;;;10.02;7.13;;;3.40;46.80;;;;;;4994916;28;20244;-70
2022/04/01 06:58:19;;;;;;;8.43;7.13;;;3.60;47.00;;;;;;4989369;28;20181;-70
2022/04/01 07:00:45;;;;;;;11.15;8.75;;;3.70;46.30;;;;;;5005132;28;20234;-70
2022/04/01 07:03:11;;;;;;;8.63;6.97;;;3.80;43.70;;;;;;5012879;28;20223;-69
2022/04/01 07:05:38;;;;;;;9.10;6.70;;;3.60;43.80;;;;;;5013030;28;20176;-69
2022/04/01 07:08:07;;;;;;;9.50;8.50;;;3.60;45.40;;;;;;5012580;28;20893;-70
2022/04/01 07:10:34;;;;;;;8.70;7.78;;;3.60;45.90;;;;;;5012520;28;20207;-69
2022/04/01 07:12:59;;;;;;;12.23;8.57;;;3.80;45.10;;;;;;5012505;28;20537;-70
2022/04/01 07:15:25;;;;;;;9.17;6.90;;;3.60;44.00;;;;;;5012747;28;20211;-70
2022/04/01 07:17:52;;;;;;;8.00;6.90;;;3.80;44.60;;;;;;5011154;28;21104;-70
2022/04/01 07:20:20;;;;;;;8.00;7.10;;;3.70;44.90;;;;;;5012297;28;20215;-72
2022/04/01 07:22:46;;;;;;;7.55;6.75;;;3.60;44.40;;;;;;5012364;28;20179;-72
2022/04/01 07:25:11;;;;;;;10.53;7.37;;;3.60;43.00;;;;;;5012823;28;20173;-70
2022/04/01 07:27:38;;;;;;;9.20;8.07;;;3.50;46.50;;;;;;5011120;28;20237;-70
2022/04/01 07:30:08;;;;;;;9.80;8.45;;;3.80;46.50;;;;;;5012476;28;20665;-71
2022/04/01 07:32:34;;;;;;;10.55;7.90;;;3.90;43.60;;;;;;5012262;28;20192;-70
2022/04/01 07:35:03;;;;;;;9.43;6.30;;;4.10;45.00;;;;;;5012396;28;20628;-70
2022/04/01 07:37:29;;;;;;;8.65;6.88;;;4.00;44.10;;;;;;5012295;28;20529;-70
2022/04/01 07:39:59;;;;;;;10.27;7.90;;;4.20;43.70;;;;;;5013394;28;20286;-70
2022/04/01 07:42:26;;;;;;;9.50;6.97;;;4.20;42.10;;;;;;5012522;28;20550;-69
2022/04/01 07:44:52;;;;;;;9.88;8.68;;;4.30;42.50;;;;;;5011235;28;20175;-70
2022/04/01 07:47:18;;;;;;;11.63;9.57;;;3.90;40.90;;;;;;5012259;28;20187;-70
2022/04/01 07:49:48;;;;;;;9.55;8.30;;;3.90;42.60;;;;;;5012509;28;20202;-67
2022/04/01 07:52:15;;;;;;;8.43;7.63;;;4.20;42.50;;;;;;5010960;28;20195;-69
2022/04/01 07:54:43;;;;;;;9.23;8.00;;;3.80;41.50;;;;;;5012005;28;20227;-69
2022/04/01 07:57:09;;;;;;;10.65;9.55;;;3.70;43.60;;;;;;5011849;28;20550;-71
2022/04/01 07:59:35;;;;;;;9.25;7.72;;;4.00;43.00;;;;;;5012057;28;20612;-68
2022/04/01 08:02:04;;;;;;;10.75;8.07;;;4.10;42.50;;;;;;5012480;28;20176;-69
2022/04/01 08:04:30;;;;;;;12.25;9.45;;;3.70;42.10;;;;;;5012635;28;20674;-69
2022/04/01 08:06:57;;;;;;;10.03;8.57;;;3.70;45.20;;;;;;5012218;28;20192;-70
2022/04/01 08:09:26;;;;;;;10.70;8.35;;;3.80;44.50;;;;;;5012455;28;20338;-68
2022/04/01 08:11:52;;;;;;;9.55;7.88;;;3.50;44.50;;;;;;5012194;28;20210;-70
2022/04/01 08:14:18;;;;;;;10.70;9.57;;;3.70;45.10;;;;;;5012094;28;20206;-69
2022/04/01 08:16:45;;;;;;;13.83;10.13;;;3.60;43.00;;;;;;5012213;28;20175;-70
2022/04/01 08:19:11;;;;;;;12.45;10.15;;;3.50;44.40;;;;;;5010796;28;20956;-69
2022/04/01 08:21:37;;;;;;;11.77;9.55;;;3.60;43.30;;;;;;5012147;28;20212;-68
2022/04/01 08:24:04;;;;;;;11.18;9.63;;;3.70;44.10;;;;;;5012568;28;20172;-68
2022/04/01 08:26:30;;;;;;;10.98;9.50;;;3.60;43.50;;;;;;5010628;28;20250;-69
2022/04/01 08:28:56;;;;;;;11.37;9.20;;;3.70;43.80;;;;;;5012318;28;20184;-69
2022/04/01 08:31:21;;;;;;;13.57;9.27;;;3.70;44.10;;;;;;5010970;28;20223;-68
2022/04/01 08:33:50;;;;;;;9.90;8.80;;;3.90;42.90;;;;;;5011853;28;20200;-70
2022/04/01 08:36:16;;;;;;;14.13;10.38;;;3.70;42.80;;;;;;5017678;28;20171;-69
2022/04/01 08:38:42;;;;;;;11.02;8.65;;;3.60;44.20;;;;;;5025978;28;20233;-68
2022/04/01 08:41:08;;;;;;;11.43;10.03;;;3.60;43.40;;;;;;5016632;28;20275;-68
2022/04/01 08:43:35;;;;;;;13.23;10.73;;;3.90;43.60;;;;;;5016188;28;20184;-70
2022/04/01 08:46:05;;;;;;;12.52;8.88;;;4.00;42.30;;;;;;5015644;28;20172;-70
2022/04/01 08:48:31;;;;;;;12.40;10.10;;;3.60;43.40;;;;;;5014944;28;20649;-68
2022/04/01 08:50:57;;;;;;;13.90;12.50;;;3.50;44.50;;;;;;5015222;28;20673;-70
2022/04/01 08:53:23;;;;;;;10.85;9.75;;;3.40;45.40;;;;;;5015301;28;20176;-71
2022/04/01 08:55:54;;;;;;;14.70;10.90;;;3.70;47.10;;;;;;5015415;28;20176;-69
2022/04/01 08:58:21;;;;;;;12.50;9.65;;;3.90;46.70;;;;;;5014630;28;20187;-69
2022/04/01 09:00:47;;;;;;;11.32;10.25;;;4.00;43.40;;;;;;5014796;28;20287;-69
2022/04/01 09:03:15;;;;;;;13.38;11.00;;;3.90;43.80;;;;;;5015212;28;20182;-70
2022/04/01 09:05:51;;;;;;;13.13;9.00;;;4.00;43.00;;;;;;5015316;28;20528;-69
2022/04/01 09:08:35;;;;;;;13.48;9.98;;;4.20;44.20;;;;;;5013771;28;20176;-70
2022/04/01 09:11:05;;;;;;;10.38;8.10;;;4.50;44.30;;;;;;4995564;28;20576;-72
2022/04/01 09:13:42;;;;;;;13.68;12.18;;;4.70;42.90;;;;;;4996142;28;20631;-70
2022/04/01 09:16:08;;;;;;;10.52;9.43;;;5.00;39.40;;;;;;4994335;28;20693;-69
2022/04/01 09:18:42;;;;;;;13.93;11.00;;;4.90;39.50;;;;;;4994096;28;20185;-71
2022/04/01 09:21:13;;;;;;;16.13;11.57;;;5.00;38.10;;;;;;5002363;28;20277;-68
2022/04/01 09:23:44;;;;;;;13.55;10.43;;;4.80;37.90;;;;;;5013446;28;20216;-69
2022/04/01 09:26:10;;;;;;;12.32;11.02;;;4.80;39.00;;;;;;5015287;28;20230;-69
2022/04/01 09:28:40;;;;;;;11.00;9.90;;;4.60;39.00;;;;;;5014408;28;20615;-68
2022/04/01 09:31:07;;;;;;;13.30;9.68;;;4.00;40.80;;;;;;5013190;28;20204;-68
2022/04/01 09:33:47;;;;;;;12.55;9.90;;;4.20;44.00;;;;;;5014309;28;20190;-70
2022/04/01 09:36:19;;;;;;;13.25;10.65;;;4.50;42.80;;;;;;5011410;28;20175;-70
2022/04/01 09:39:00;;;;;;;12.57;10.73;;;4.50;39.80;;;;;;5014233;28;20173;-70
2022/04/01 09:41:31;;;;;;;13.55;9.88;;;4.80;39.20;;;;;;5013939;28;20200;-69
2022/04/01 09:44:09;;;;;;;12.52;10.18;;;4.90;38.90;;;;;;5014600;28;20649;-69
2022/04/01 09:46:39;;;;;;;9.93;8.93;;;5.00;38.10;;;;;;5012226;28;20211;-69
2022/04/01 09:49:04;;;;;;;10.18;8.85;;;4.70;37.00;;;;;;4999719;28;20180;-69
2022/04/01 09:51:33;;;;;;;10.83;9.70;;;4.50;36.20;;;;;;5014304;28;20199;-68
2022/04/01 09:54:02;;;;;;;12.48;9.45;;;4.40;40.20;;;;;;5013797;28;20207;-69
2022/04/01 09:56:40;;;;;;;13.55;10.05;;;4.50;40.20;;;;;;5013719;28;20179;-69
2022/04/01 09:59:07;;;;;;;9.30;8.25;;;4.30;40.20;;;;;;5013910;28;20188;-70
2022/04/01 10:01:36;;;;;;;10.65;9.07;;;4.60;38.50;;;;;;5013931;28;20191;-69
2022/04/01 10:04:03;;;;;;;10.88;8.80;;;4.80;39.90;;;;;;5014078;28;20181;-67
2022/04/01 10:06:31;;;;;;;12.50;9.45;;;4.70;40.00;;;;;;5014141;28;20625;-68
2022/04/01 10:09:01;;;;;;;11.40;8.80;;;4.70;37.90;;;;;;5021016;28;20237;-70
2022/04/01 10:11:28;;;;;;;11.32;9.18;;;4.60;37.90;;;;;;5017129;28;20726;-68
2022/04/01 10:13:55;;;;;;;10.27;9.13;;;4.90;38.60;;;;;;5013566;28;20212;-69
2022/04/01 10:16:21;;;;;;;12.90;8.27;;;4.70;37.90;;;;;;5014850;28;20196;-69
2022/04/01 10:18:49;;;;;;;9.25;8.32;;;4.50;37.70;;;;;;5015054;28;20176;-69
2022/04/01 10:21:19;;;;;;;8.82;7.57;;;4.40;37.60;;;;;;5013059;28;20212;-68
2022/04/01 10:23:55;;;;;;;12.15;9.18;;;4.40;38.90;;;;;;5013373;28;20752;-68
2022/04/01 10:26:21;;;;;;;9.35;8.55;;;4.40;39.50;;;;;;4999159;28;20193;-67
2022/04/01 10:28:51;;;;;;;9.25;7.90;;;4.60;37.30;;;;;;4993435;28;20215;-69
2022/04/01 10:31:18;;;;;;;9.32;7.55;;;4.50;39.40;;;;;;5007901;28;20258;-68
2022/04/01 10:33:44;;;;;;;9.35;7.55;;;4.50;38.30;;;;;;4993917;28;20227;-69
2022/04/01 10:36:22;;;;;;;9.60;8.17;;;4.80;40.40;;;;;;4995117;28;20646;-69
2022/04/01 10:38:49;;;;;;;10.45;8.90;;;4.90;39.40;;;;;;4993741;28;20169;-69
2022/04/01 10:41:18;;;;;;;7.38;6.20;;;4.70;37.90;;;;;;4993789;28;20544;-70
2022/04/01 10:43:45;;;;;;;8.68;7.78;;;5.00;37.70;;;;;;4992578;28;20189;-70
2022/04/01 10:46:16;;;;;;;6.85;6.32;;;4.70;35.60;;;;;;4993753;28;20177;-70
2022/04/01 10:52:11;;;;;;;8.45;7.72;;;4.70;36.30;;;;;;4993634;28;20311;-70
2022/04/01 10:54:42;;;;;;;7.75;6.95;;;4.40;37.90;;;;;;4993321;28;20678;-70
2022/04/01 10:57:10;;;;;;;8.05;6.85;;;4.60;37.80;;;;;;5007343;28;20183;-69
2022/04/01 10:59:44;;;;;;;9.48;7.63;;;4.70;36.40;;;;;;4993712;28;20188;-70
2022/04/01 11:02:13;;;;;;;7.85;7.15;;;4.90;37.00;;;;;;4993975;28;20176;-69
2022/04/01 11:04:41;;;;;;;7.72;6.93;;;4.70;35.60;;;;;;4993843;28;20177;-70
2022/04/01 11:07:39;;;;;;;8.93;7.53;;;4.30;37.50;;;;;;4992477;28;20187;-70
2022/04/01 11:10:08;;;;;;;8.40;7.60;;;4.50;39.80;;;;;;4982208;28;20212;-70
2022/04/01 11:12:39;;;;;;;8.30;7.43;;;4.40;37.60;;;;;;4994014;28;20184;-70
2022/04/01 11:15:08;;;;;;;7.22;6.50;;;4.50;38.50;;;;;;5009068;28;20222;-70
2022/04/01 11:17:34;;;;;;;9.20;8.20;;;4.80;38.80;;;;;;4993661;28;20168;-68
2022/04/01 11:20:01;;;;;;;9.20;7.57;;;4.60;34.90;;;;;;4994312;28;20208;-70
2022/04/01 11:22:43;;;;;;;7.10;6.40;;;4.40;37.60;;;;;;4997257;28;20183;-69
2022/04/01 11:25:31;;;;;;;8.27;7.45;;;4.50;37.70;;;;;;4995723;28;20181;-69
2022/04/01 11:28:05;;;;;;;13.00;10.50;;;4.40;37.60;;;;;;4995915;28;20303;-69
2022/04/01 11:30:54;;;;;;;9.00;6.65;;;4.50;37.70;;;;;;4997816;28;20204;-69
2022/04/01 11:33:21;;;;;;;18.15;12.30;;;4.20;37.50;;;;;;4986678;28;20247;-69
2022/04/01 11:35:50;;;;;;;44.85;24.70;;;4.40;37.80;;;;;;5010109;28;20187;-70
2022/04/01 11:38:18;;;;;;;10.52;7.18;;;4.50;37.90;;;;;;4993103;28;20181;-68
2022/04/01 11:40:47;;;;;;;9.98;9.02;;;4.00;39.40;;;;;;5012037;28;20259;-69
2022/04/01 11:43:15;;;;;;;8.90;8.02;;;4.10;40.20;;;;;;5015175;28;20180;-68
2022/04/01 11:45:45;;;;;;;9.30;8.30;;;3.80;39.10;;;;;;5014453;28;20230;-67
2022/04/01 11:48:14;;;;;;;10.30;7.68;;;3.80;41.10;;;;;;5009479;28;20180;-68
2022/04/01 11:50:44;;;;;;;7.20;6.47;;;3.60;43.30;;;;;;5010825;28;20208;-69
2022/04/01 11:53:22;;;;;;;8.68;6.82;;;3.80;40.20;;;;;;5014461;28;20614;-69
2022/04/01 11:55:48;;;;;;;8.63;7.55;;;3.90;39.40;;;;;;5013888;28;20579;-68
2022/04/01 11:58:13;;;;;;;7.40;6.65;;;3.30;41.10;;;;;;5011327;28;20176;-68
2022/04/01 12:00:39;;;;;;;6.87;5.53;;;3.00;44.20;;;;;;5018670;28;20195;-69
2022/04/01 12:03:07;;;;;;;5.30;4.33;;;2.80;46.40;;;;;;5014385;28;20180;-70
2022/04/01 12:05:36;;;;;;;8.45;7.13;;;2.50;46.10;;;;;;5014268;28;20236;-69
2022/04/01 12:11:01;;;;;;;5.30;4.30;;;2.60;46.90;;;;;;5020231;28;20202;-68
2022/04/01 12:13:31;;;;;;;5.82;5.32;;;2.70;46.20;;;;;;5021805;28;20191;-68
2022/04/01 12:15:58;;;;;;;7.35;5.97;;;2.50;46.10;;;;;;5020473;28;20255;-69
2022/04/01 12:18:28;;;;;;;5.28;4.20;;;2.70;46.20;;;;;;5000278;28;20172;-68
2022/04/01 12:20:56;;;;;;;4.55;4.15;;;3.10;47.50;;;;;;4999583;28;20242;-70
2022/04/01 12:23:26;;;;;;;6.15;4.07;;;3.30;45.40;;;;;;4999953;28;20165;-71
2022/04/01 12:25:54;;;;;;;5.30;3.55;;;3.50;42.60;;;;;;4999140;28;20583;-69
2022/04/01 12:28:24;;;;;;;8.15;4.55;;;3.20;42.50;;;;;;4999196;28;20189;-70
2022/04/01 12:30:55;;;;;;;9.15;5.65;;;3.50;46.20;;;;;;4999491;28;20199;-69
2022/04/01 12:33:24;;;;;;;5.20;4.70;;;4.00;43.00;;;;;;5014397;28;20236;-69
2022/04/01 12:35:52;;;;;;;4.93;4.53;;;4.30;42.00;;;;;;4998123;28;20183;-68
2022/04/01 12:38:19;;;;;;;4.68;4.20;;;4.20;39.10;;;;;;5014469;28;20204;-69
2022/04/01 12:40:44;;;;;;;5.05;3.60;;;4.10;39.40;;;;;;4999062;28;20203;-69
2022/04/01 12:43:43;;;;;;;3.97;3.67;;;4.20;40.60;;;;;;5014522;28;20623;-69
2022/04/01 12:46:14;;;;;;;5.53;5.03;;;3.90;39.30;;;;;;4998745;28;20169;-69
2022/04/01 12:48:54;;;;;;;5.38;4.50;;;3.70;42.50;;;;;;5013790;28;20188;-70
2022/04/01 12:51:26;;;;;;;5.05;3.90;;;3.90;43.50;;;;;;4998857;28;20207;-69
2022/04/01 12:54:08;;;;;;;3.30;3.10;;;4.20;42.30;;;;;;5021730;28;20212;-68
2022/04/01 12:56:49;;;;;;;4.10;3.80;;;3.90;39.20;;;;;;4999867;28;20177;-72
2022/04/01 12:59:17;;;;;;;3.92;3.63;;;3.40;40.70;;;;;;4997263;28;20208;-70
2022/04/01 13:01:45;;;;;;;4.25;3.85;;;3.20;42.00;;;;;;4997861;28;20197;-70
2022/04/01 13:04:18;;;;;;;3.97;3.67;;;3.20;41.70;;;;;;4996289;28;20692;-71
2022/04/01 13:07:12;;;;;;;5.05;3.65;;;2.80;43.40;;;;;;4997262;28;20185;-71
2022/04/01 13:10:13;;;;;;;4.35;3.85;;;2.90;43.20;;;;;;4997372;28;20184;-71
2022/04/01 13:12:41;;;;;;;4.80;3.30;;;2.80;46.30;;;;;;5024523;28;20204;-72